Hovedside
METAR-TAF:

METAR-TAF

Lufthavner :

Dzaoudzi, Mayotte

breddegrad: 12-48S, lengdegrad: 045-17E, høyde over havet: 8 m

Gjeldene værobservasjon

Denne rapporten ble laget for 30 minutter siden, klokken 03:00 UTC
Vind 2 kt fra Nordvest
Temperatur 25°C
Luftfuktighet 89%
Trykk 1010 hPa
Sikt 10 km eller mer
ingen skyer under 1500 m og ingen bygeskyer

METAR: FMCZ 290300Z AUTO 32002KT CAVOK 25/23 Q1010 TEMPO 16010KT 2000 SHRA FEW045TCU

Tid: 06:30 (03:30 UTC)

Varsel

Denne rapporten ble laget for 4 timer og 30 minutter siden, klokken 23:00 UTC
Varsel gyldig fra 29. klokken 00 UTC til 29. klokken 24 UTC
Vind 4 kt fra Vest
Sikt 10 km eller mer
Få skyer i en høyde av 2200 ft
Brutte skyer i en høyde av 30000 ft
Midlertidig
fra 29. klokken 03 UTC til 29. klokken 15 UTC
Vind 10 kt fra Sør-sørøst
Sikt: 2000 m
Få skyer i en høyde av 4500 ft, Tårnskyer (cumulus).
regnbyger

TAF: FMCZ 282300Z 2900/2924 28004KT 9999 FEW022 BKN300 TEMPO 2903/2915 16010KT 2000 SHRA FEW045TCU

Værobservasjoner og værvarsel for over 4000 flyplasser (METAR- og TAF-rapporter).

Tilgjengelige stasjoner er representert av de røde og gule prikkene på kartet.

Hold musepekeren over prikken for å se navnet på stasjonen.

Klikk så for å se værobservasjoner og -varsler.

For å forandre kartet kan du klikke på den grønne knappen med svart kryss for å zoome inn, på den grønne knappen med strek for å zoome ut, eller på de grønne pilene for å se tilstøtende kart.


METAR-TAF: